Huvudsida
METAR-TAF:

METAR-TAF

Flygplatser :

Udon Thani, Thailand

latitud: 17-23N, longitud: 102-48E, höjd: 177 m

Aktuellt väderrapport

Denna rapport gjordes för 33 minuter sedan, klockan 12:00 UTC
Vind 3 kt från syd
Temperatur 37°C
Fuktighet 35%
Tryck 1003 hPa
Sikt 10 km eller mer
Inga moln under 1 500 m eller inga cumulonimbus

METAR: VTUD 241200Z 17003KT CAVOK 37/19 Q1003 NOSIG

Tid: 19:33 (12:33 UTC)

Väderprognos

Denna rapport gjordes för 1 timme och 33 minuter sedan, klockan 11:00 UTC
Prognos gäller från 24 kl. 12 UTC till 25 kl. 12 UTC
Vind 7 kt från syd/sydväst
Sikt: 8000 m
Få moln på en höjd av 3000 ft

TAF: VTUD 241100Z 2412/2512 21007KT 8000 FEW030

Aktuella väderrapporter och prognoser från 4000 flygplatser (METAR- och TAF-rapporter).

De tillgängliga stationerna syns som gula och röda prickar på kartan.

För musen över prickarna för att se namnen på stationerna.

Klicka sedan för att få väderrapporter och prognoser.

För att ändra kartan: Klicka på de gröna knapparna med ett svart kors på för att zooma in; den gröna knappen med ett streck på för att zooma ut; eller på de gröna pilarna för angränsande kartor.


METAR-TAF: